Time;durP1;ratioP1;P1;durP2;ratioP2;P2;SDS_P1;SDS_P2;PMS_P1;PMS_P2;Temp;Humidity;BMP_temperature;BMP_pressure;BME280_temperature;BME280_humidity;BME280_pressure;Samples;Min_cycle;Max_cycle;Signal;HPM_P1;HPM_P2
2024/01/12 00:04:46;;;;;;;45.42;32.63;;;;;;;20.68;39.72;102196.56;31469341;28;20582;-36
2024/01/12 00:19:49;;;;;;;43.55;30.10;;;;;;;20.65;40.00;102200.00;31483357;28;20233;-36
2024/01/12 00:34:52;;;;;;;39.15;27.13;;;;;;;20.60;40.02;102211.41;31492566;28;20510;-36
2024/01/12 00:49:55;;;;;;;34.33;23.73;;;;;;;20.56;39.59;102193.34;31486179;28;20309;-36
2024/01/12 01:04:58;;;;;;;31.05;22.60;;;;;;;20.54;39.83;102189.13;31468917;28;20199;-36
2024/01/12 01:20:02;;;;;;;30.98;22.30;;;;;;;20.51;39.70;102198.25;31503288;28;20238;-37
2024/01/12 01:35:06;;;;;;;26.27;18.65;;;;;;;20.47;39.63;102198.00;31573087;28;20276;-36
2024/01/12 01:50:10;;;;;;;26.42;18.65;;;;;;;20.44;39.51;102220.41;31562520;28;20226;-36
2024/01/12 02:05:15;;;;;;;25.13;17.45;;;;;;;20.37;39.73;102198.16;31561090;28;20199;-37
2024/01/12 02:20:18;;;;;;;24.50;17.45;;;;;;;20.35;39.52;102206.06;31583844;28;20313;-36
2024/01/12 02:35:21;;;;;;;22.88;17.10;;;;;;;20.33;39.41;102214.00;31562888;28;20221;-37
2024/01/12 02:50:24;;;;;;;20.92;14.98;;;;;;;20.31;39.41;102199.31;31571287;28;20215;-37
2024/01/12 03:05:28;;;;;;;22.33;16.00;;;;;;;20.31;39.38;102199.31;31567919;28;20600;-36
2024/01/12 03:20:31;;;;;;;20.73;15.02;;;;;;;20.48;39.16;102194.03;31569562;28;20235;-39
2024/01/12 03:35:35;;;;;;;63.15;39.83;;;;;;;20.88;38.62;102186.09;31420408;28;20218;-41
2024/01/12 03:50:38;;;;;;;146.43;99.95;;;;;;;21.12;38.77;102181.19;31412794;28;20310;-44
2024/01/12 04:05:41;;;;;;;199.85;132.73;;;;;;;21.33;38.85;102164.72;31388395;28;20199;-37
2024/01/12 04:20:45;;;;;;;196.35;132.38;;;;;;;21.47;38.92;102159.09;31408440;28;20243;-37
2024/01/12 04:35:48;;;;;;;206.75;141.20;;;;;;;21.61;39.13;102163.63;31385478;28;20687;-37
2024/01/12 04:50:51;;;;;;;258.88;180.23;;;;;;;21.66;39.69;102142.88;31450106;28;20227;-37
2024/01/12 05:05:54;;;;;;;231.65;160.98;;;;;;;21.70;39.27;102146.75;31459976;28;20245;-38
2024/01/12 05:20:57;;;;;;;206.77;144.63;;;;;;;21.71;39.42;102156.91;31442185;28;20223;-37
2024/01/12 05:36:00;;;;;;;168.55;117.93;;;;;;;21.72;39.09;102181.28;31492832;28;20694;-38
2024/01/12 05:51:04;;;;;;;145.65;102.63;;;;;;;21.72;39.07;102184.09;31493258;28;20221;-36
2024/01/12 06:06:07;;;;;;;124.53;89.55;;;;;;;21.75;38.83;102167.34;31473953;28;20226;-37
2024/01/12 06:21:10;;;;;;;110.90;79.53;;;;;;;21.78;39.25;102156.53;31464955;28;20389;-38
2024/01/12 06:36:13;;;;;;;96.68;67.90;;;;;;;21.71;39.28;102149.25;31485035;28;20222;-37
2024/01/12 06:51:23;;;;;;;176.10;122.22;;;;;;;21.71;39.38;102139.91;31433049;28;20700;-37
2024/01/12 07:06:26;;;;;;;178.32;120.68;;;;;;;21.66;39.81;102146.53;31423011;28;20618;-40
2024/01/12 07:21:29;;;;;;;158.75;107.25;;;;;;;21.58;39.91;102149.25;31424094;28;20231;-38
2024/01/12 07:36:32;;;;;;;127.97;89.95;;;;;;;21.55;39.81;102162.03;31420780;28;20231;-37
2024/01/12 07:51:37;;;;;;;108.68;75.72;;;;;;;21.50;39.75;102156.47;31422471;28;20526;-37
2024/01/12 08:06:39;;;;;;;96.35;67.57;;;;;;;21.49;39.76;102179.44;31418007;28;20207;-37
2024/01/12 08:21:43;;;;;;;89.70;59.17;;;;;;;21.44;39.72;102176.69;31465854;28;20227;-37
2024/01/12 08:36:46;;;;;;;72.88;51.47;;;;;;;21.38;39.94;102181.63;31468915;28;20211;-37
2024/01/12 08:51:49;;;;;;;67.18;46.78;;;;;;;21.33;39.90;102188.22;31547397;28;20492;-37
2024/01/12 09:06:53;;;;;;;60.60;41.78;;;;;;;21.31;40.18;102173.50;31558780;28;20201;-38
2024/01/12 09:21:56;;;;;;;54.65;36.65;;;;;;;21.26;39.88;102179.28;31568594;28;20252;-37
2024/01/12 09:36:59;;;;;;;74.93;51.53;;;;;;;21.27;40.05;102188.63;31565311;28;20236;-39
2024/01/12 09:52:03;;;;;;;182.32;128.95;;;;;;;21.29;40.64;102175.81;31561875;28;20237;-40
2024/01/12 10:07:07;;;;;;;210.57;146.43;;;;;;;21.42;41.17;102187.53;31546533;28;20207;-39
2024/01/12 10:22:14;;;;;;;246.00;169.27;;;;;;;21.48;41.00;102178.59;31509167;28;20846;-40
2024/01/12 10:37:18;;;;;;;217.55;149.63;;;;;;;21.55;41.26;102167.69;31404724;28;20222;-38
2024/01/12 10:52:32;;;;;;;273.50;191.57;;;;;;;21.64;42.37;102145.19;31432215;28;20212;-39
2024/01/12 11:07:35;;;;;;;281.30;191.45;;;;;;;21.70;41.87;102112.72;31408105;28;20261;-38
2024/01/12 11:22:39;;;;;;;258.40;173.50;;;;;;;21.85;42.39;102101.09;31401069;28;20224;-38
2024/01/12 11:37:44;;;;;;;216.95;148.93;;;;;;;22.42;43.57;102102.41;31436999;28;20501;-38
2024/01/12 11:52:56;;;;;;;300.55;214.15;;;;;;;22.67;42.79;102086.78;31420061;28;20224;-37
2024/01/12 12:08:00;;;;;;;260.15;186.02;;;;;;;22.85;42.42;102062.22;31568306;28;20223;-38
2024/01/12 12:23:03;;;;;;;202.65;140.70;;;;;;;22.90;42.48;102035.72;31502675;28;20226;-38
2024/01/12 12:38:07;;;;;;;176.13;120.72;;;;;;;22.94;42.22;102042.44;31562886;28;20321;-37
2024/01/12 12:53:11;;;;;;;143.02;97.78;;;;;;;22.95;41.89;102012.88;31550701;28;20245;-38
2024/01/12 13:08:15;;;;;;;115.50;81.00;;;;;;;22.92;42.46;101976.59;31582163;28;20222;-38
2024/01/12 13:23:19;;;;;;;101.35;71.65;;;;;;;22.94;42.15;101982.81;31536427;28;20251;-37
2024/01/12 13:38:23;;;;;;;83.05;57.88;;;;;;;22.92;41.78;101983.13;31437451;28;20229;-37
2024/01/12 13:53:29;;;;;;;74.75;51.33;;;;;;;22.94;42.38;101965.78;31409016;28;20251;-39
2024/01/12 14:08:32;;;;;;;64.72;44.20;;;;;;;22.92;42.02;101968.09;31453208;28;20264;-39
2024/01/12 14:23:35;;;;;;;216.98;140.40;;;;;;;23.03;42.53;101978.00;31443340;28;20223;-39
2024/01/12 14:38:38;;;;;;;191.70;129.98;;;;;;;23.02;42.46;101959.28;31488158;28;20635;-39
2024/01/12 14:53:41;;;;;;;263.08;176.60;;;;;;;23.07;43.25;101948.63;31553473;28;20639;-39
2024/01/12 15:08:44;;;;;;;196.73;126.97;;;;;;;23.61;43.75;101939.97;31562456;28;20215;-40
2024/01/12 15:23:48;;;;;;;170.45;112.45;;;;;;;23.87;43.37;101943.69;31513651;28;20814;-39
2024/01/12 15:38:51;;;;;;;199.70;132.55;;;;;;;23.70;43.29;101944.50;31457311;28;20318;-39
2024/01/12 15:53:54;;;;;;;181.95;119.32;;;;;;;23.60;43.16;101938.31;31466340;28;20215;-38
2024/01/12 16:08:57;;;;;;;149.52;94.95;;;;;;;23.47;43.08;101934.41;31471258;28;20223;-37
2024/01/12 16:24:01;;;;;;;106.45;70.15;;;;;;;23.49;43.17;101932.06;31474843;28;20227;-38
2024/01/12 16:39:05;;;;;;;98.55;63.42;;;;;;;23.50;43.49;101928.03;31511573;28;20223;-39
2024/01/12 16:54:08;;;;;;;218.55;136.98;;;;;;;23.04;43.65;101937.09;31468854;28;20234;-36
2024/01/12 17:09:12;;;;;;;284.33;184.48;;;;;;;22.91;45.01;101923.81;31472772;28;20318;-37
2024/01/12 17:24:15;;;;;;;204.10;127.93;;;;;;;23.01;44.28;101921.53;31432787;28;20223;-38
2024/01/12 17:39:19;;;;;;;175.80;110.75;;;;;;;23.15;45.33;101901.53;31459564;28;20237;-36
2024/01/12 17:54:23;;;;;;;372.15;263.27;;;;;;;23.28;46.71;101900.56;31447856;28;20311;-40
2024/01/12 18:09:26;;;;;;;351.30;266.27;;;;;;;23.58;46.78;101900.84;31453589;28;20233;-42
2024/01/12 18:24:30;;;;;;;291.67;215.68;;;;;;;23.45;46.25;101897.78;31467291;28;20258;-40
2024/01/12 18:39:33;;;;;;;259.20;180.07;;;;;;;22.96;44.17;101901.81;31442975;28;20231;-40
2024/01/12 18:54:36;;;;;;;231.88;154.38;;;;;;;22.64;44.44;101900.13;31462968;28;20576;-42
2024/01/12 19:09:39;;;;;;;384.83;277.33;;;;;;;22.56;43.71;101909.44;31475904;28;20227;-41
2024/01/12 19:24:44;;;;;;;294.85;205.63;;;;;;;22.43;43.90;101881.97;31442532;28;20226;-42
2024/01/12 19:39:47;;;;;;;249.52;170.90;;;;;;;22.27;43.82;101860.84;31439586;28;20226;-40
2024/01/12 19:54:51;;;;;;;214.55;142.02;;;;;;;22.20;43.41;101875.47;31464376;28;20228;-45
2024/01/12 20:09:54;;;;;;;278.23;192.52;;;;;;;22.05;43.92;101873.06;31439842;28;20753;-44
2024/01/12 20:24:57;;;;;;;238.52;159.27;;;;;;;22.05;43.45;101859.72;31454956;28;20305;-40
2024/01/12 20:40:01;;;;;;;324.63;232.23;;;;;;;21.85;44.18;101851.66;31481078;28;20230;-41
2024/01/12 20:55:04;;;;;;;285.52;201.35;;;;;;;21.78;44.18;101842.78;31469824;28;20219;-39
2024/01/12 21:10:09;;;;;;;292.85;201.40;;;;;;;21.77;44.30;101829.78;31480294;28;20239;-39
2024/01/12 21:25:12;;;;;;;281.00;200.30;;;;;;;21.64;44.21;101820.19;31491842;28;20229;-36
2024/01/12 21:40:15;;;;;;;253.38;175.43;;;;;;;21.54;44.44;101819.59;31488411;28;20523;-36
2024/01/12 21:55:19;;;;;;;222.10;149.35;;;;;;;21.47;44.76;101799.34;31490063;28;20284;-39
2024/01/12 22:10:22;;;;;;;203.43;135.15;;;;;;;21.35;44.54;101789.44;31510918;28;20385;-42
2024/01/12 22:25:25;;;;;;;180.98;124.63;;;;;;;21.25;44.49;101784.00;31548297;28;20236;-38
2024/01/12 22:40:28;;;;;;;162.32;108.75;;;;;;;21.14;44.65;101768.38;31504186;28;20656;-37
2024/01/12 22:55:31;;;;;;;143.10;96.85;;;;;;;21.05;44.89;101756.13;31501705;28;20226;-40
2024/01/12 23:10:34;;;;;;;136.68;93.25;;;;;;;20.96;45.08;101738.22;31511889;28;20222;-39
2024/01/12 23:25:37;;;;;;;123.22;84.90;;;;;;;20.88;45.01;101731.34;31517511;28;20231;-39
2024/01/12 23:40:40;;;;;;;113.85;76.35;;;;;;;20.78;45.05;101713.72;31483129;28;20245;-39
2024/01/12 23:55:43;;;;;;;99.47;70.15;;;;;;;20.70;45.42;101704.00;31450258;28;20246;-40
